Portada
METAR-TAF:

METAR-TAF

Aeropuertos :

Reikiavik, Islandia

Aeropuerto de Reikiavik

latitud: 64-08N, longitud: 021-54W, altitud: 54 m

Observación

El informe se hizo hace 18 minutos, a las 23:00 UTC
Viento 3 kt del norte
Temperatura 5°C
Humedad 75%
Presión 1004 hPa
Visibilidad 10 km o más
sin nubes por debajo de 1500 m y sin presencia de cumulonimbus.

METAR: BIRK 212300Z 35003KT CAVOK 05/01 Q1004

Hora: 23:18 (23:18 UTC)

Pronóstico

El informe se hizo hace 3 horas y 29 minutos, a las 19:49 UTC
Pronóstico válido del 21 a las 21 UTC al 22 a las 21 UTC
Viento 8 kt del norte
Visibilidad 10 km o más
Escasas nubes a una altura de 3000 ft
Cielo nuboso a una altura de 4000 ft
Evolucionando progresivamente
del 21 a las 23 UTC al 22 a las 02 UTC
Viento 15 kt del norte-noreste
Visibilidad 10 km o más
sin nubes por debajo de 1500 m y sin presencia de cumulonimbus.

TAF: BIRK 211949Z 2121/2221 01008KT 9999 FEW030 BKN040 TX11/2215Z TN01/2206Z BECMG 2123/2202 02015KT CAVOK

Observaciones y pronósticos meteorológicos de más de 4000 aeropuertos (mensajes METAR y TAF).

Los puntos amarillos y rojos representan las estaciones disponibles.

Ponga el ratón en el punto deseado para ver el nombre de la estación.

Haga clic para ver las observaciones y los pronósticos meteorológicos.

Para cambiar el mapa : haga clic en los botones verdes con una cruz de color negro para hacer un zoom, en el botón verde con un guión para alejar o en las flechas verdes para mapas adyacentes.


METAR-TAF: